createdAt,value
2017-06-15T00:01:01.619Z,72.57
2017-06-15T00:03:32.232Z,72.44
2017-06-15T00:06:01.920Z,71.89
2017-06-15T00:08:31.614Z,72.15
2017-06-15T00:11:01.315Z,72.13
2017-06-15T00:13:31.030Z,72.24
2017-06-15T00:16:01.596Z,72.31
2017-06-15T00:18:32.158Z,71.87
2017-06-15T00:21:01.881Z,72.77
2017-06-15T00:23:31.540Z,72.29
2017-06-15T00:26:01.218Z,72.50
2017-06-15T00:28:30.946Z,72.77
2017-06-15T00:31:00.615Z,72.05
2017-06-15T00:33:30.357Z,73.19
2017-06-15T00:36:00.038Z,73.27
2017-06-15T00:38:29.855Z,73.04
2017-06-15T00:40:59.565Z,72.99
2017-06-15T00:43:29.258Z,73.50
2017-06-15T00:45:58.963Z,73.47
2017-06-15T00:48:28.681Z,73.52
2017-06-15T00:50:58.378Z,73.51
2017-06-15T00:53:28.894Z,74.04
2017-06-15T00:55:58.642Z,74.00
2017-06-15T00:58:28.341Z,73.69
2017-06-15T01:00:58.033Z,73.68
2017-06-15T01:03:27.746Z,74.33
2017-06-15T01:05:57.430Z,74.12
2017-06-15T01:08:27.166Z,73.55
2017-06-15T01:10:56.864Z,74.27
2017-06-15T01:13:27.486Z,73.81
2017-06-15T01:15:57.198Z,73.88
2017-06-15T01:18:26.865Z,73.80
2017-06-15T01:20:56.582Z,73.92
2017-06-15T01:23:26.278Z,74.50
2017-06-15T01:25:56.003Z,74.60
2017-06-15T01:28:25.692Z,74.60
2017-06-15T01:30:56.235Z,74.29
2017-06-15T01:33:26.753Z,73.68
2017-06-15T01:36:04.467Z,74.20
2017-06-15T01:38:37.945Z,74.90
2017-06-15T01:41:07.335Z,74.83
2017-06-15T01:43:37.042Z,74.70
2017-06-15T01:46:06.744Z,75.01
2017-06-15T01:48:37.276Z,75.40
2017-06-15T01:51:06.959Z,74.51
2017-06-15T01:53:36.677Z,74.43
2017-06-15T01:56:06.358Z,74.75
2017-06-15T01:58:36.926Z,74.72
2017-06-15T02:01:06.911Z,74.34
2017-06-15T02:03:37.590Z,74.35
2017-06-15T02:06:08.160Z,75.08
2017-06-15T02:08:37.901Z,74.93
2017-06-15T02:11:08.398Z,75.66
2017-06-15T02:13:38.970Z,75.15
2017-06-15T02:16:08.747Z,74.56
2017-06-15T02:18:38.426Z,74.69
2017-06-15T02:21:08.114Z,75.23
2017-06-15T02:23:37.791Z,75.60
2017-06-15T02:26:07.505Z,75.89
2017-06-15T02:28:37.205Z,76.34
2017-06-15T02:31:06.946Z,76.32
2017-06-15T02:33:36.634Z,76.58
2017-06-15T02:36:06.450Z,75.78
2017-06-15T02:38:36.161Z,76.35
2017-06-15T02:41:05.890Z,76.07
2017-06-15T02:43:35.592Z,76.49
2017-06-15T02:46:05.259Z,75.99
2017-06-15T02:48:35.462Z,75.69
2017-06-15T02:51:05.166Z,76.06
2017-06-15T02:53:34.948Z,76.27
2017-06-15T02:56:07.877Z,76.68
2017-06-15T02:58:47.491Z,76.76
2017-06-15T03:01:32.979Z,76.85
2017-06-15T03:04:16.799Z,76.83
2017-06-15T03:06:59.205Z,76.79
2017-06-15T03:09:40.107Z,76.52
2017-06-15T03:12:18.248Z,76.87
2017-06-15T03:15:02.273Z,76.43
2017-06-15T03:17:43.883Z,76.85
2017-06-15T03:20:25.179Z,76.80
2017-06-15T03:23:02.729Z,76.83
2017-06-15T03:25:42.938Z,77.28
2017-06-15T03:28:23.838Z,76.78
2017-06-15T03:31:05.834Z,76.47
2017-06-15T03:33:39.410Z,76.51
2017-06-15T03:36:09.937Z,76.38
2017-06-15T03:38:41.035Z,76.63
2017-06-15T03:41:12.207Z,76.80
2017-06-15T03:43:43.226Z,76.68
2017-06-15T03:46:15.692Z,76.40
2017-06-15T03:48:48.544Z,76.00
2017-06-15T03:51:20.745Z,75.67
2017-06-15T03:53:52.894Z,75.84
2017-06-15T03:56:30.486Z,75.81
2017-06-15T03:59:04.369Z,75.74
2017-06-15T04:01:36.520Z,76.17
2017-06-15T04:04:07.615Z,76.06
2017-06-15T04:06:37.342Z,75.96
2017-06-15T04:09:07.019Z,75.20
2017-06-15T04:11:36.750Z,75.67
2017-06-15T04:14:06.465Z,74.15
2017-06-15T04:16:35.980Z,72.59
2017-06-15T04:19:05.727Z,73.55
2017-06-15T04:21:35.429Z,73.87
2017-06-15T04:24:06.648Z,73.05
2017-06-15T04:26:37.081Z,73.12
2017-06-15T04:29:06.833Z,72.38
2017-06-15T04:34:15.196Z,73.72
2017-06-15T04:36:44.898Z,74.16
2017-06-15T04:39:14.586Z,74.35
2017-06-15T04:41:45.163Z,73.75
2017-06-15T04:44:14.846Z,73.46
2017-06-15T04:46:44.556Z,71.47
2017-06-15T04:49:14.253Z,70.18
2017-06-15T04:51:45.832Z,68.28
2017-06-15T04:54:19.996Z,68.66
2017-06-15T04:56:53.021Z,67.57
2017-06-15T04:59:25.842Z,67.75
2017-06-15T05:01:55.992Z,68.03
2017-06-15T05:04:25.683Z,66.49
2017-06-15T05:06:55.350Z,67.60
2017-06-15T05:09:25.067Z,67.63
2017-06-15T05:11:54.742Z,66.72
2017-06-15T05:14:24.279Z,67.15
2017-06-15T05:16:54.794Z,66.84
2017-06-15T05:19:24.541Z,67.85
2017-06-15T05:21:54.221Z,68.08
2017-06-15T05:24:23.904Z,68.00
2017-06-15T05:26:53.634Z,67.04
2017-06-15T05:29:23.323Z,67.22
2017-06-15T05:31:53.046Z,66.08
2017-06-15T05:34:26.926Z,65.30
2017-06-15T05:37:01.041Z,65.49
2017-06-15T05:39:30.721Z,66.11
2017-06-15T05:42:00.407Z,66.20
2017-06-15T05:44:30.125Z,66.20
2017-06-15T05:46:59.831Z,65.64
2017-06-15T05:49:29.557Z,65.46
2017-06-15T05:51:59.245Z,65.89
2017-06-15T05:54:28.958Z,66.74
2017-06-15T06:00:04.779Z,66.02
2017-06-15T06:02:34.597Z,66.31
2017-06-15T06:05:04.281Z,65.69
2017-06-15T06:07:34.250Z,66.02
2017-06-15T06:10:03.977Z,65.79
2017-06-15T06:12:33.686Z,65.70
2017-06-15T06:15:03.422Z,66.40
2017-06-15T06:17:33.088Z,65.59
2017-06-15T06:20:02.946Z,64.84
2017-06-15T06:22:32.645Z,64.57
2017-06-15T06:25:02.315Z,64.35
2017-06-15T06:27:32.010Z,62.89
2017-06-15T06:30:01.726Z,62.32
2017-06-15T06:32:31.458Z,61.58
2017-06-15T06:35:01.134Z,60.92
2017-06-15T06:37:30.828Z,61.03
2017-06-15T06:40:01.381Z,61.11
2017-06-15T06:42:31.981Z,61.02
2017-06-15T06:45:01.698Z,61.06
2017-06-15T06:47:31.378Z,60.63
2017-06-15T06:50:01.078Z,60.95
2017-06-15T06:52:30.884Z,62.02
2017-06-15T06:55:00.716Z,61.41
2017-06-15T06:57:35.528Z,60.96
2017-06-15T07:00:07.649Z,61.11
2017-06-15T07:02:39.621Z,61.02
2017-06-15T07:05:10.966Z,59.96
2017-06-15T07:07:41.300Z,59.60
2017-06-15T07:10:13.959Z,59.13
2017-06-15T07:12:43.752Z,58.85
2017-06-15T07:15:13.492Z,58.33
2017-06-15T07:17:43.824Z,57.42
2017-06-15T07:20:13.686Z,56.73
2017-06-15T07:22:43.430Z,56.98
2017-06-15T07:25:13.217Z,56.46
2017-06-15T07:27:43.482Z,55.45
2017-06-15T07:30:13.219Z,55.68
2017-06-15T07:32:43.610Z,55.41
2017-06-15T07:35:13.803Z,55.86
2017-06-15T07:37:43.592Z,55.10
2017-06-15T07:40:14.221Z,53.25
2017-06-15T07:42:44.018Z,52.26
2017-06-15T07:45:14.808Z,52.40
2017-06-15T07:47:44.883Z,50.76
2017-06-15T07:50:14.621Z,50.46
2017-06-15T07:52:44.343Z,50.65
2017-06-15T07:55:14.125Z,51.16
2017-06-15T07:57:45.177Z,49.88
2017-06-15T08:00:14.951Z,49.79
2017-06-15T08:02:44.680Z,49.97
2017-06-15T08:05:14.449Z,49.91
2017-06-15T08:07:44.223Z,49.48
2017-06-15T08:10:13.975Z,49.42
2017-06-15T08:12:52.155Z,48.87
2017-06-15T08:15:21.889Z,49.56
2017-06-15T08:17:54.603Z,48.86
2017-06-15T08:20:27.251Z,48.52
2017-06-15T08:22:57.018Z,47.95
2017-06-15T08:25:28.053Z,47.65
2017-06-15T08:27:58.897Z,47.54
2017-06-15T08:30:28.654Z,47.50
2017-06-15T08:32:58.382Z,47.16
2017-06-15T08:35:28.144Z,46.91
2017-06-15T08:37:57.868Z,46.50
2017-06-15T08:40:27.681Z,45.76
2017-06-15T08:42:57.606Z,45.81
2017-06-15T08:45:27.355Z,46.08
2017-06-15T08:47:57.122Z,44.84
2017-06-15T08:50:26.869Z,45.82
2017-06-15T08:52:56.651Z,45.25
2017-06-15T08:55:26.221Z,45.21
2017-06-15T08:57:57.382Z,44.26
2017-06-15T09:00:29.879Z,44.32
2017-06-15T09:02:59.604Z,41.99
2017-06-15T09:05:29.745Z,44.30
2017-06-15T09:07:59.486Z,43.06
2017-06-15T09:10:30.586Z,43.16
2017-06-15T09:13:00.326Z,43.29
2017-06-15T09:15:30.093Z,42.12
2017-06-15T09:18:03.853Z,41.99
2017-06-15T09:20:36.339Z,42.16
2017-06-15T09:23:06.112Z,40.89
2017-06-15T09:25:35.850Z,40.15
2017-06-15T09:28:08.888Z,40.72
2017-06-15T09:30:38.647Z,40.95
2017-06-15T09:33:08.379Z,39.93
2017-06-15T09:35:38.140Z,40.21
2017-06-15T09:38:07.922Z,39.45
2017-06-15T09:40:45.474Z,39.30
2017-06-15T09:43:15.848Z,38.80
2017-06-15T09:45:45.657Z,40.15
2017-06-15T09:48:15.397Z,40.40
2017-06-15T09:50:45.149Z,39.27
2017-06-15T09:53:15.118Z,38.93
2017-06-15T09:55:45.679Z,39.88
2017-06-15T09:58:15.474Z,40.30
2017-06-15T10:00:45.230Z,40.08
2017-06-15T10:03:15.044Z,39.41
2017-06-15T10:05:44.876Z,39.95
2017-06-15T10:08:14.686Z,39.40
2017-06-15T10:10:44.497Z,39.40
2017-06-15T10:13:14.255Z,39.06
2017-06-15T10:15:44.068Z,38.85
2017-06-15T10:18:13.805Z,38.67
2017-06-15T10:20:43.597Z,38.25
2017-06-15T10:23:14.320Z,38.52
2017-06-15T10:25:44.057Z,38.49
2017-06-15T10:28:13.857Z,37.97
2017-06-15T10:30:43.655Z,37.58
2017-06-15T10:33:15.078Z,37.49
2017-06-15T10:35:44.839Z,38.50
2017-06-15T10:38:14.580Z,38.01
2017-06-15T10:40:44.345Z,37.89
2017-06-15T10:43:14.488Z,37.21
2017-06-15T10:45:44.260Z,37.49
2017-06-15T10:48:14.086Z,36.98
2017-06-15T10:50:45.253Z,37.24
2017-06-15T10:53:15.028Z,36.93
2017-06-15T10:55:44.845Z,36.29
2017-06-15T10:58:14.649Z,36.06
2017-06-15T11:00:44.389Z,35.62
2017-06-15T11:03:14.335Z,35.61
2017-06-15T11:05:44.460Z,35.33
2017-06-15T11:08:14.247Z,34.98
2017-06-15T11:10:44.045Z,35.83
2017-06-15T11:13:13.792Z,35.22
2017-06-15T11:15:43.524Z,35.78
2017-06-15T11:18:14.328Z,34.99
2017-06-15T11:20:45.625Z,34.17
2017-06-15T11:23:15.452Z,33.86
2017-06-15T11:25:47.841Z,33.58
2017-06-15T11:28:19.553Z,34.11
2017-06-15T11:30:49.267Z,33.87
2017-06-15T11:33:19.049Z,34.34
2017-06-15T11:35:48.834Z,35.39
2017-06-15T11:38:18.602Z,35.59
2017-06-15T11:40:48.629Z,36.25
2017-06-15T11:43:20.787Z,35.03
2017-06-15T11:45:50.628Z,35.20
2017-06-15T11:48:21.902Z,34.99
2017-06-15T11:50:51.695Z,34.23
2017-06-15T11:53:21.418Z,32.96
2017-06-15T11:55:51.149Z,33.22
2017-06-15T11:58:21.057Z,33.47
2017-06-15T12:00:50.774Z,33.44
2017-06-15T12:03:20.558Z,33.03
2017-06-15T12:05:54.846Z,33.16
2017-06-15T12:08:24.628Z,35.08
2017-06-15T12:10:54.385Z,36.14
2017-06-15T12:13:24.123Z,35.22
2017-06-15T12:15:54.002Z,34.97
2017-06-15T12:18:23.914Z,34.10
2017-06-15T12:20:53.740Z,34.22
2017-06-15T12:23:23.456Z,34.48
2017-06-15T12:25:53.195Z,35.46
2017-06-15T12:28:22.954Z,35.16
2017-06-15T12:31:03.193Z,34.94
2017-06-15T12:33:36.510Z,34.96
2017-06-15T12:36:06.249Z,35.08
2017-06-15T12:38:35.994Z,35.76
2017-06-15T12:41:05.758Z,35.65
2017-06-15T12:43:35.508Z,36.38
2017-06-15T12:46:05.299Z,37.23
2017-06-15T12:48:35.207Z,36.73
2017-06-15T12:51:04.934Z,37.26
2017-06-15T12:53:34.732Z,36.50
2017-06-15T12:56:04.618Z,36.14
2017-06-15T12:58:35.688Z,36.17
2017-06-15T13:01:05.418Z,35.87
2017-06-15T13:03:35.165Z,35.12
2017-06-15T13:06:04.952Z,35.51
2017-06-15T13:08:36.417Z,37.01
2017-06-15T13:11:06.187Z,36.06
2017-06-15T13:13:35.931Z,36.33
2017-06-15T13:16:05.938Z,36.30
2017-06-15T13:18:37.332Z,36.42
2017-06-15T13:21:07.118Z,36.43
2017-06-15T13:23:36.889Z,36.62
2017-06-15T13:26:06.660Z,36.15
2017-06-15T13:28:39.548Z,35.42
2017-06-15T13:31:17.387Z,35.35
2017-06-15T13:33:47.162Z,35.11
2017-06-15T13:36:17.115Z,34.88
2017-06-15T13:38:47.015Z,34.98
2017-06-15T13:41:16.808Z,35.13
2017-06-15T13:43:46.900Z,35.21
2017-06-15T13:46:18.893Z,35.68
2017-06-15T13:48:48.627Z,35.92
2017-06-15T13:51:18.410Z,34.53
2017-06-15T13:53:48.956Z,34.76
2017-06-15T13:56:18.818Z,34.25
2017-06-15T13:58:48.611Z,33.67
2017-06-15T14:01:18.333Z,33.59
2017-06-15T14:03:49.559Z,33.34
2017-06-15T14:06:19.291Z,32.50
2017-06-15T14:08:49.038Z,32.46
2017-06-15T14:11:20.472Z,32.54
2017-06-15T14:13:50.855Z,32.54
2017-06-15T14:16:21.617Z,31.86
2017-06-15T14:18:51.388Z,32.50
2017-06-15T14:21:21.247Z,32.16
2017-06-15T14:23:52.123Z,32.09
2017-06-15T14:26:21.844Z,32.28
2017-06-15T14:28:51.656Z,32.61
2017-06-15T14:31:21.485Z,33.24
2017-06-15T14:33:51.380Z,33.33
2017-06-15T14:36:21.664Z,32.83
2017-06-15T14:38:53.524Z,32.19
2017-06-15T14:41:23.325Z,32.11
2017-06-15T14:43:53.084Z,33.18
2017-06-15T14:46:23.231Z,33.49
2017-06-15T14:48:53.811Z,33.64
2017-06-15T14:51:27.396Z,33.97
2017-06-15T14:53:58.149Z,33.75
2017-06-15T14:56:29.212Z,34.61
2017-06-15T14:58:58.990Z,34.94
2017-06-15T15:01:29.581Z,35.00
2017-06-15T15:03:59.376Z,35.96
2017-06-15T15:06:31.436Z,35.59
2017-06-15T15:09:12.393Z,35.49
2017-06-15T15:11:42.159Z,34.40
2017-06-15T15:14:11.956Z,35.24
2017-06-15T15:16:41.877Z,35.28
2017-06-15T15:19:11.619Z,35.59
2017-06-15T15:21:42.280Z,35.75
2017-06-15T15:24:12.025Z,35.95
2017-06-15T15:26:44.096Z,35.11
2017-06-15T15:29:13.973Z,35.10
2017-06-15T15:31:43.982Z,35.30
2017-06-15T15:34:13.728Z,35.66
2017-06-15T15:36:43.491Z,35.95
2017-06-15T15:39:13.245Z,36.31
2017-06-15T15:41:43.009Z,36.53
2017-06-15T15:44:12.794Z,36.25
2017-06-15T15:46:43.511Z,36.58
2017-06-15T15:49:13.645Z,37.23
2017-06-15T15:51:43.469Z,37.15
2017-06-15T15:54:20.653Z,37.20
2017-06-15T15:56:50.384Z,37.20
2017-06-15T15:59:21.342Z,37.04
2017-06-15T16:01:51.741Z,36.81
2017-06-15T16:04:21.569Z,37.02
2017-06-15T16:06:51.288Z,36.85
2017-06-15T16:09:21.022Z,37.08
2017-06-15T16:11:50.781Z,37.34
2017-06-15T16:14:20.676Z,37.63
2017-06-15T16:16:50.503Z,37.80
2017-06-15T16:19:20.220Z,37.83
2017-06-15T16:21:50.318Z,38.08
2017-06-15T16:24:20.075Z,38.15
2017-06-15T16:26:49.813Z,38.34
2017-06-15T16:29:20.896Z,38.43
2017-06-15T16:31:50.631Z,38.70
2017-06-15T16:34:23.295Z,38.80
2017-06-15T16:36:53.027Z,38.79
2017-06-15T16:39:22.831Z,39.16
2017-06-15T16:41:52.569Z,39.54
2017-06-15T16:44:23.763Z,39.61
2017-06-15T16:46:53.520Z,39.83
2017-06-15T16:49:24.663Z,40.05
2017-06-15T16:51:56.060Z,40.37
2017-06-15T16:54:28.554Z,40.26
2017-06-15T16:56:59.481Z,40.83
2017-06-15T16:59:29.265Z,40.97
2017-06-15T17:01:59.026Z,40.99
2017-06-15T17:04:28.774Z,41.09
2017-06-15T17:06:58.770Z,41.30
2017-06-15T17:09:28.593Z,41.31
2017-06-15T17:11:58.463Z,41.72
2017-06-15T17:14:29.567Z,41.97
2017-06-15T17:17:05.244Z,42.34
2017-06-15T17:19:37.033Z,42.39
2017-06-15T17:22:07.197Z,42.91
2017-06-15T17:24:37.027Z,43.17
2017-06-15T17:27:06.829Z,43.62
2017-06-15T17:29:36.587Z,43.81
2017-06-15T17:32:06.336Z,48.72
2017-06-15T17:34:36.221Z,50.50
2017-06-15T17:37:07.383Z,50.52
2017-06-15T17:39:37.416Z,50.40
2017-06-15T17:42:08.627Z,48.84
2017-06-15T17:44:38.423Z,49.20
2017-06-15T17:47:12.065Z,50.98
2017-06-15T17:49:41.852Z,49.50
2017-06-15T17:52:11.621Z,49.35
2017-06-15T17:54:41.379Z,48.01
2017-06-15T17:57:11.201Z,47.90
2017-06-15T17:59:45.367Z,48.20
2017-06-15T18:02:15.162Z,47.86
2017-06-15T18:04:45.610Z,47.50
2017-06-15T18:07:15.357Z,47.61
2017-06-15T18:09:46.064Z,47.40
2017-06-15T18:12:15.805Z,46.57
2017-06-15T18:14:48.500Z,46.11
2017-06-15T18:17:19.912Z,46.13
2017-06-15T18:19:49.735Z,46.57
2017-06-15T18:22:19.874Z,47.15
2017-06-15T18:24:49.647Z,47.67
2017-06-15T18:27:19.426Z,47.99
2017-06-15T18:29:50.297Z,49.52
2017-06-15T18:32:21.531Z,50.57
2017-06-15T18:34:51.353Z,53.01
2017-06-15T18:37:21.154Z,52.61
2017-06-15T18:39:58.675Z,53.33
2017-06-15T18:42:28.454Z,53.28
2017-06-15T18:44:59.020Z,53.29
2017-06-15T18:47:28.823Z,52.90
2017-06-15T18:49:58.576Z,52.02
2017-06-15T18:52:28.332Z,51.94
2017-06-15T18:54:58.108Z,52.78
2017-06-15T18:57:27.993Z,54.04
2017-06-15T18:59:58.624Z,53.94
2017-06-15T19:02:28.385Z,53.91
2017-06-15T19:04:58.131Z,53.72
2017-06-15T19:07:29.276Z,54.60
2017-06-15T19:09:59.013Z,55.63
2017-06-15T19:12:28.831Z,57.54
2017-06-15T19:14:59.013Z,62.91
2017-06-15T19:17:28.804Z,65.91
2017-06-15T19:19:58.541Z,67.61
2017-06-15T19:22:29.309Z,68.20
2017-06-15T19:24:59.061Z,68.71
2017-06-15T19:27:28.817Z,70.08
2017-06-15T19:30:01.039Z,70.64
2017-06-15T19:32:30.783Z,72.09
2017-06-15T19:35:04.633Z,72.24
2017-06-15T19:37:34.368Z,73.27
2017-06-15T19:40:04.192Z,74.19
2017-06-15T19:42:36.653Z,73.55
2017-06-15T19:45:06.500Z,71.08
2017-06-15T19:47:38.296Z,71.34
2017-06-15T19:50:08.083Z,71.83
2017-06-15T19:52:37.823Z,70.89
2017-06-15T19:55:07.542Z,70.49
2017-06-15T19:57:37.340Z,69.75
2017-06-15T20:00:07.073Z,69.34
2017-06-15T20:02:37.643Z,70.12
2017-06-15T20:05:07.411Z,69.62
2017-06-15T20:07:39.193Z,69.29
2017-06-15T20:10:09.036Z,69.73
2017-06-15T20:12:38.837Z,70.35
2017-06-15T20:15:08.593Z,68.49
2017-06-15T20:17:38.337Z,68.42
2017-06-15T20:20:08.120Z,68.42
2017-06-15T20:22:37.717Z,68.81
2017-06-15T20:25:07.268Z,69.50
2017-06-15T20:27:36.845Z,68.46
2017-06-15T20:30:06.084Z,68.01
2017-06-15T20:32:37.283Z,67.72
2017-06-15T20:35:08.488Z,65.28
2017-06-15T20:37:39.614Z,62.76
2017-06-15T20:40:09.352Z,61.96
2017-06-15T20:42:40.072Z,63.78
2017-06-15T20:45:09.805Z,65.52
2017-06-15T20:47:39.544Z,67.65
2017-06-15T20:50:10.100Z,67.91
2017-06-15T20:52:39.829Z,68.37
2017-06-15T20:55:09.607Z,67.96
2017-06-15T20:57:39.342Z,68.84
2017-06-15T21:00:09.081Z,68.98
2017-06-15T21:02:39.741Z,69.44
2017-06-15T21:05:10.957Z,72.26
2017-06-15T21:07:44.741Z,74.44
2017-06-15T21:10:15.020Z,76.25
2017-06-15T21:12:45.937Z,76.83
2017-06-15T21:15:15.678Z,77.84
2017-06-15T21:17:45.445Z,77.79
2017-06-15T21:20:16.045Z,80.15
2017-06-15T21:22:46.547Z,80.08
2017-06-15T21:25:18.217Z,81.52
2017-06-15T21:27:49.382Z,83.47
2017-06-15T21:30:19.181Z,85.87
2017-06-15T21:32:48.919Z,85.69
2017-06-15T21:35:18.279Z,83.57
2017-06-15T21:37:48.033Z,83.71
2017-06-15T21:40:18.659Z,82.41
2017-06-15T21:42:51.441Z,83.62
2017-06-15T21:45:22.564Z,83.36
2017-06-15T21:47:53.710Z,83.07
2017-06-15T21:50:24.790Z,82.65
2017-06-15T21:52:57.249Z,83.44
2017-06-15T21:55:28.898Z,82.83
2017-06-15T21:58:00.656Z,82.27
2017-06-15T22:00:32.714Z,82.19
2017-06-15T22:03:05.331Z,82.98
2017-06-15T22:05:38.019Z,82.74
2017-06-15T22:08:09.477Z,81.93
2017-06-15T22:10:41.219Z,82.25
2017-06-15T22:13:12.852Z,80.98
2017-06-15T22:15:44.103Z,82.15
2017-06-15T22:18:14.783Z,84.41
2017-06-15T22:20:45.915Z,82.75
2017-06-15T22:23:17.316Z,82.43
2017-06-15T22:25:48.411Z,82.54
2017-06-15T22:28:20.596Z,83.58
2017-06-15T22:30:51.701Z,82.47
2017-06-15T22:33:24.458Z,81.03
2017-06-15T22:35:55.726Z,81.72
2017-06-15T22:38:27.063Z,81.68
2017-06-15T22:40:58.211Z,81.97
2017-06-15T22:43:30.920Z,82.55
2017-06-15T22:46:02.288Z,83.35
2017-06-15T22:48:33.533Z,84.32
2017-06-15T22:51:06.106Z,85.52
2017-06-15T22:53:39.555Z,85.69
2017-06-15T22:56:11.016Z,85.26
2017-06-15T22:58:41.949Z,84.85
2017-06-15T23:01:17.126Z,84.03
2017-06-15T23:03:49.624Z,84.61
2017-06-15T23:06:22.515Z,84.67
2017-06-15T23:08:53.631Z,85.37
2017-06-15T23:11:28.531Z,85.96
2017-06-15T23:13:58.853Z,84.36
2017-06-15T23:16:28.607Z,84.68
2017-06-15T23:18:58.460Z,85.33
2017-06-15T23:21:29.352Z,86.05
2017-06-15T23:23:59.126Z,86.14
2017-06-15T23:26:28.921Z,84.78
2017-06-15T23:29:00.515Z,85.07
2017-06-15T23:31:30.329Z,84.08
2017-06-15T23:34:00.121Z,83.99
2017-06-15T23:36:29.923Z,83.65
2017-06-15T23:39:00.970Z,83.99
2017-06-15T23:41:30.715Z,85.90
2017-06-15T23:44:01.557Z,85.37
2017-06-15T23:46:31.357Z,84.64
2017-06-15T23:49:01.158Z,84.98
2017-06-15T23:51:32.527Z,84.46
2017-06-15T23:54:03.381Z,84.28
2017-06-15T23:56:33.522Z,84.61
2017-06-15T23:59:03.268Z,84.39
